Time;durP1;ratioP1;P1;durP2;ratioP2;P2;SDS_P1;SDS_P2;PMS_P1;PMS_P2;Temp;Humidity;BMP_temperature;BMP_pressure;BME280_temperature;BME280_humidity;BME280_pressure;Samples;Min_cycle;Max_cycle;Signal;HPM_P1;HPM_P2
2023/09/25 00:00:35;;;;;;;1.90;0.80;;;;;;;17.04;88.35;101373.03;5044135;28;20056;-69
2023/09/25 00:03:03;;;;;;;1.88;1.10;;;;;;;17.05;89.20;101380.19;5044106;28;20488;-69
2023/09/25 00:05:33;;;;;;;2.05;0.95;;;;;;;17.01;88.45;101376.41;5043737;28;20041;-69
2023/09/25 00:08:01;;;;;;;4.03;0.85;;;;;;;16.99;89.13;101370.31;5045519;28;20053;-69
2023/09/25 00:10:31;;;;;;;1.95;0.90;;;;;;;16.95;89.84;101378.41;5039264;28;20049;-69
2023/09/25 00:12:59;;;;;;;1.90;1.00;;;;;;;16.81;90.84;101383.91;5051101;28;20068;-69
2023/09/25 00:15:27;;;;;;;1.08;0.98;;;;;;;16.95;88.86;101383.94;5047581;28;20086;-69
2023/09/25 00:17:57;;;;;;;2.40;0.80;;;;;;;16.92;89.29;101393.66;5038239;28;20138;-69
2023/09/25 00:20:26;;;;;;;1.95;0.88;;;;;;;16.93;89.81;101389.78;5045435;28;20056;-69
2023/09/25 00:22:55;;;;;;;1.23;0.70;;;;;;;16.93;90.29;101375.16;5038360;28;20488;-69
2023/09/25 00:25:23;;;;;;;6.35;1.60;;;;;;;16.81;90.36;101381.13;5037655;28;20045;-69
2023/09/25 00:27:51;;;;;;;1.40;1.20;;;;;;;16.79;91.02;101383.41;5022978;28;20071;-70
2023/09/25 00:30:20;;;;;;;0.73;0.70;;;;;;;16.66;91.84;101377.53;5023496;28;20056;-69
2023/09/25 00:32:50;;;;;;;1.70;1.05;;;;;;;16.69;91.14;101380.81;5019120;28;20049;-69
2023/09/25 00:35:20;;;;;;;3.75;1.02;;;;;;;16.70;91.62;101390.72;5043168;28;20056;-69
2023/09/25 00:37:48;;;;;;;1.77;1.02;;;;;;;16.66;90.93;101387.75;5020161;28;20053;-69
2023/09/25 00:40:21;;;;;;;1.95;0.68;;;;;;;16.53;92.05;101383.84;5038717;28;20060;-69
2023/09/25 00:42:53;;;;;;;1.02;0.70;;;;;;;16.52;93.82;101388.53;5027556;28;20045;-69
2023/09/25 00:45:23;;;;;;;1.30;1.10;;;;;;;16.41;94.30;101391.75;5032101;28;20046;-69
2023/09/25 00:47:52;;;;;;;1.48;0.80;;;;;;;16.38;94.64;101387.66;5040432;28;20056;-69
2023/09/25 00:50:20;;;;;;;1.92;0.70;;;;;;;16.46;93.85;101392.50;5028055;28;20056;-69
2023/09/25 00:52:48;;;;;;;1.52;1.10;;;;;;;16.44;93.30;101394.75;5050001;28;20055;-69
2023/09/25 00:55:16;;;;;;;1.60;0.93;;;;;;;16.37;93.73;101389.59;5050605;28;20064;-69
2023/09/25 00:57:49;;;;;;;2.72;0.90;;;;;;;16.45;93.44;101374.28;5051544;28;20049;-69
2023/09/25 01:00:18;;;;;;;0.53;0.53;;;;;;;16.43;92.72;101381.22;5046404;28;20053;-69
2023/09/25 01:02:47;;;;;;;1.25;0.63;;;;;;;16.48;93.39;101383.91;5013881;28;20061;-69
2023/09/25 01:05:16;;;;;;;0.63;0.63;;;;;;;16.47;92.44;101372.03;5014057;28;20065;-69
2023/09/25 01:07:45;;;;;;;2.15;1.23;;;;;;;16.27;94.60;101377.88;5015694;28;20049;-68
2023/09/25 01:10:17;;;;;;;1.55;1.05;;;;;;;16.09;96.38;101383.91;5044057;28;20438;-68
2023/09/25 01:12:49;;;;;;;1.23;1.13;;;;;;;15.96;95.88;101373.63;5027374;28;20124;-68
2023/09/25 01:15:17;;;;;;;3.72;1.23;;;;;;;15.78;96.81;101386.25;5042358;28;20046;-68
2023/09/25 01:17:45;;;;;;;1.13;0.98;;;;;;;15.71;97.70;101381.91;5023816;28;20051;-68
2023/09/25 01:20:15;;;;;;;2.63;1.33;;;;;;;15.64;97.58;101392.47;5046930;28;20068;-68
2023/09/25 01:22:45;;;;;;;2.55;1.27;;;;;;;15.63;98.23;101381.75;5036021;28;20042;-68
2023/09/25 01:25:13;;;;;;;2.05;1.20;;;;;;;15.63;98.34;101382.56;5049152;28;20060;-68
2023/09/25 01:27:43;;;;;;;2.65;1.35;;;;;;;15.64;98.21;101386.94;5023599;28;20036;-68
2023/09/25 01:30:13;;;;;;;1.55;1.00;;;;;;;15.59;98.05;101385.09;5044487;28;20179;-68
2023/09/25 01:32:44;;;;;;;3.17;1.08;;;;;;;15.65;98.88;101379.50;5045835;28;20051;-68
2023/09/25 01:35:16;;;;;;;4.05;1.40;;;;;;;15.77;97.80;101379.91;5049176;28;20044;-68
2023/09/25 01:37:46;;;;;;;2.65;1.17;;;;;;;15.73;97.92;101378.84;5046726;28;20403;-68
2023/09/25 01:40:17;;;;;;;1.90;1.15;;;;;;;15.66;98.03;101373.69;5038161;28;20057;-68
2023/09/25 01:42:46;;;;;;;1.48;0.80;;;;;;;15.65;97.95;101371.22;5025986;28;20045;-68
2023/09/25 01:45:17;;;;;;;1.52;1.40;;;;;;;15.65;98.09;101376.75;5042972;28;20045;-68
2023/09/25 01:47:50;;;;;;;1.45;1.05;;;;;;;15.65;98.74;101371.22;5029394;28;20048;-68
2023/09/25 01:50:21;;;;;;;4.35;1.10;;;;;;;15.58;98.67;101366.06;5041344;28;20056;-68
2023/09/25 01:52:57;;;;;;;1.00;0.90;;;;;;;15.56;98.89;101371.06;5044290;28;20037;-68
2023/09/25 01:55:40;;;;;;;2.10;0.80;;;;;;;15.49;98.81;101359.56;5020933;28;20060;-68
2023/09/25 01:58:09;;;;;;;1.73;1.40;;;;;;;15.51;98.53;101349.88;5030019;28;20045;-68
2023/09/25 02:00:38;;;;;;;1.92;1.20;;;;;;;15.44;99.19;101354.91;5038717;28;20046;-68
2023/09/25 02:03:06;;;;;;;1.83;1.10;;;;;;;15.55;98.97;101344.59;5028351;28;20047;-68
2023/09/25 02:05:35;;;;;;;2.20;1.58;;;;;;;15.56;98.61;101349.78;5049055;28;20044;-68
2023/09/25 02:08:03;;;;;;;1.83;1.42;;;;;;;15.54;99.51;101349.28;5035072;28;20049;-68
2023/09/25 02:10:34;;;;;;;4.30;1.60;;;;;;;15.48;100.00;101349.66;5017411;28;20049;-68
2023/09/25 02:13:02;;;;;;;1.40;1.30;;;;;;;15.39;100.00;101347.53;5048425;28;20083;-68
2023/09/25 02:15:30;;;;;;;3.17;1.50;;;;;;;15.26;99.83;101343.53;5034612;28;20032;-68
2023/09/25 02:17:58;;;;;;;3.10;1.50;;;;;;;15.18;100.00;101347.78;5048147;28;20061;-68
2023/09/25 02:20:26;;;;;;;4.30;1.55;;;;;;;15.26;100.00;101349.03;5018861;28;20045;-68
2023/09/25 02:22:54;;;;;;;3.30;1.65;;;;;;;15.26;100.00;101338.03;5029877;28;20053;-68
2023/09/25 02:25:22;;;;;;;2.25;1.63;;;;;;;15.13;99.75;101344.25;5037725;28;20506;-68
2023/09/25 02:27:50;;;;;;;2.22;1.50;;;;;;;15.19;100.00;101345.81;5049922;28;20107;-68
2023/09/25 02:30:20;;;;;;;1.83;1.63;;;;;;;15.13;100.00;101347.81;5025799;28;20067;-68
2023/09/25 02:32:48;;;;;;;1.75;1.40;;;;;;;15.22;100.00;101350.78;5037554;28;20048;-68
2023/09/25 02:35:17;;;;;;;2.58;1.52;;;;;;;15.28;100.00;101341.31;5034516;28;20464;-68
2023/09/25 02:37:45;;;;;;;4.25;1.50;;;;;;;15.23;99.77;101337.78;5031893;28;20056;-68
2023/09/25 02:40:16;;;;;;;1.63;1.40;;;;;;;15.39;98.17;101343.97;5031656;28;20068;-68
2023/09/25 02:42:47;;;;;;;3.13;1.20;;;;;;;15.42;97.94;101346.97;5041370;28;20496;-68
2023/09/25 02:45:16;;;;;;;3.10;1.25;;;;;;;15.21;98.81;101342.78;5030634;28;20056;-68
2023/09/25 02:47:45;;;;;;;1.73;1.42;;;;;;;15.13;99.30;101336.81;5034270;28;20052;-68
2023/09/25 02:50:14;;;;;;;1.38;1.20;;;;;;;15.07;100.00;101337.97;5049324;28;20044;-68
2023/09/25 02:52:46;;;;;;;1.40;1.25;;;;;;;15.12;99.51;101339.84;5037457;28;20061;-68
2023/09/25 02:55:15;;;;;;;3.05;1.38;;;;;;;15.10;99.03;101342.09;5029285;28;20064;-68
2023/09/25 02:57:44;;;;;;;1.30;1.20;;;;;;;15.01;100.00;101330.88;5030413;28;20057;-68
2023/09/25 03:00:12;;;;;;;1.48;1.15;;;;;;;15.04;98.97;101330.28;5035392;28;20620;-68
2023/09/25 03:02:42;;;;;;;1.15;0.98;;;;;;;14.91;100.00;101310.56;5048474;28;20041;-68
2023/09/25 03:05:15;;;;;;;1.92;1.30;;;;;;;14.86;99.59;101318.88;5028111;28;20125;-68
2023/09/25 03:07:44;;;;;;;1.35;1.00;;;;;;;14.89;98.96;101323.00;5030650;28;20083;-68
2023/09/25 03:10:12;;;;;;;1.27;1.10;;;;;;;14.89;98.63;101318.31;5012471;28;20057;-68
2023/09/25 03:12:40;;;;;;;1.95;1.10;;;;;;;14.86;99.73;101323.59;5030102;28;20050;-68
2023/09/25 03:15:08;;;;;;;2.20;1.02;;;;;;;14.88;98.89;101310.31;5037829;28;20057;-68
2023/09/25 03:17:38;;;;;;;1.15;1.05;;;;;;;14.85;98.18;101316.41;5052779;28;20084;-68
2023/09/25 03:20:17;;;;;;;5.35;1.33;;;;;;;14.80;98.30;101317.28;5052042;28;20594;-68
2023/09/25 03:22:45;;;;;;;2.80;1.08;;;;;;;14.95;96.79;101332.03;5050252;28;20052;-68
2023/09/25 03:25:17;;;;;;;1.58;1.15;;;;;;;14.83;96.98;101325.00;5043452;28;20399;-68
2023/09/25 03:27:45;;;;;;;1.52;1.00;;;;;;;14.74;97.18;101319.28;5045965;28;20053;-68
2023/09/25 03:30:14;;;;;;;0.88;0.88;;;;;;;14.78;97.56;101323.06;5035376;28;20048;-68
2023/09/25 03:32:44;;;;;;;1.40;1.27;;;;;;;14.99;97.89;101322.88;5031187;28;20041;-68
2023/09/25 03:35:15;;;;;;;2.67;1.42;;;;;;;14.89;98.40;101323.81;5048472;28;20052;-68
2023/09/25 03:37:44;;;;;;;5.07;1.33;;;;;;;14.89;98.90;101311.97;5018390;28;20065;-68
2023/09/25 03:40:13;;;;;;;2.55;1.55;;;;;;;14.84;99.87;101310.09;5034514;28;20058;-68
2023/09/25 03:42:41;;;;;;;6.68;1.48;;;;;;;14.88;100.00;101310.31;5034798;28;20037;-68
2023/09/25 03:45:10;;;;;;;3.33;1.45;;;;;;;14.80;99.40;101320.03;5047018;28;20127;-68
2023/09/25 03:47:38;;;;;;;2.10;1.42;;;;;;;14.77;99.77;101321.44;5044258;28;20049;-68
2023/09/25 03:50:07;;;;;;;2.45;1.20;;;;;;;14.80;100.00;101311.78;5037873;28;20354;-68
2023/09/25 03:52:35;;;;;;;1.40;1.30;;;;;;;14.73;100.00;101320.38;5021710;28;20037;-68
2023/09/25 03:55:04;;;;;;;3.25;1.50;;;;;;;14.59;100.00;101309.19;5043451;28;20048;-68
2023/09/25 03:57:32;;;;;;;5.22;1.40;;;;;;;14.55;100.00;101307.28;5051019;28;20049;-68
2023/09/25 04:00:00;;;;;;;2.72;1.13;;;;;;;14.57;100.00;101318.84;5038946;28;20404;-68
2023/09/25 04:02:38;;;;;;;2.08;1.48;;;;;;;14.54;100.00;101313.91;5052164;28;20559;-68
2023/09/25 04:05:08;;;;;;;2.78;1.27;;;;;;;14.57;100.00;101321.63;5033830;28;20404;-68
2023/09/25 04:07:36;;;;;;;2.33;1.50;;;;;;;14.55;100.00;101313.63;5043045;28;20044;-68
2023/09/25 04:10:07;;;;;;;2.22;1.20;;;;;;;14.57;98.44;101319.66;5047393;28;20041;-68
2023/09/25 04:12:35;;;;;;;4.25;1.52;;;;;;;14.62;98.10;101321.56;5042781;28;20053;-68
2023/09/25 04:15:13;;;;;;;1.83;1.35;;;;;;;14.72;96.73;101334.44;5037916;28;20052;-68
2023/09/25 04:17:41;;;;;;;1.80;1.23;;;;;;;14.62;97.55;101332.59;5048463;28;20057;-68
2023/09/25 04:20:26;;;;;;;1.58;1.02;;;;;;;14.44;97.55;101337.69;5041785;28;20499;-68
2023/09/25 04:22:57;;;;;;;1.60;1.50;;;;;;;14.50;99.05;101344.81;5046373;28;20053;-68
2023/09/25 04:25:27;;;;;;;1.10;1.00;;;;;;;14.57;97.54;101346.41;5051739;28;20053;-68
2023/09/25 04:27:56;;;;;;;1.33;1.10;;;;;;;14.51;97.51;101340.94;5050041;28;20064;-68
2023/09/25 04:30:24;;;;;;;1.52;1.30;;;;;;;14.47;96.79;101341.81;5052061;28;20055;-68
2023/09/25 04:32:56;;;;;;;1.20;1.02;;;;;;;14.39;98.42;101337.72;5049612;28;20055;-68
2023/09/25 04:35:24;;;;;;;1.67;1.20;;;;;;;14.36;98.57;101327.28;5039297;28;20133;-68
2023/09/25 04:37:55;;;;;;;1.70;1.52;;;;;;;14.28;96.98;101341.66;5050422;28;20057;-68
2023/09/25 04:40:24;;;;;;;2.63;1.30;;;;;;;14.41;96.93;101338.25;5035798;28;20041;-69
2023/09/25 04:42:53;;;;;;;2.10;1.50;;;;;;;14.42;95.96;101348.16;5041463;28;20045;-68
2023/09/25 04:45:21;;;;;;;1.92;1.10;;;;;;;14.47;96.51;101348.13;5037024;28;20057;-68
2023/09/25 04:47:55;;;;;;;4.53;1.63;;;;;;;14.47;97.16;101350.06;5037467;28;20376;-68
2023/09/25 04:50:26;;;;;;;1.52;1.23;;;;;;;14.40;96.87;101355.06;5036360;28;20049;-68
2023/09/25 04:52:54;;;;;;;3.88;1.33;;;;;;;14.54;94.29;101347.78;5029938;28;20057;-68
2023/09/25 04:55:22;;;;;;;1.25;1.10;;;;;;;14.55;95.62;101346.69;5035828;28;20046;-68
2023/09/25 04:57:50;;;;;;;1.48;1.10;;;;;;;14.56;94.99;101353.03;5032031;28;20049;-68
2023/09/25 05:00:26;;;;;;;2.15;1.15;;;;;;;14.59;94.64;101355.19;5030726;28;20053;-68
2023/09/25 05:02:56;;;;;;;4.05;1.38;;;;;;;14.62;96.16;101352.69;5034040;28;20045;-68
2023/09/25 05:05:25;;;;;;;0.80;0.70;;;;;;;14.54;94.91;101349.72;5031824;28;20048;-68
2023/09/25 05:07:55;;;;;;;2.88;1.30;;;;;;;14.44;96.28;101348.72;5049569;28;20045;-68
2023/09/25 05:10:27;;;;;;;2.67;1.50;;;;;;;14.41;96.12;101341.00;5050289;28;20045;-69
2023/09/25 05:12:57;;;;;;;1.50;1.38;;;;;;;14.44;95.92;101348.72;5041596;28;20049;-69
2023/09/25 05:15:27;;;;;;;3.03;1.15;;;;;;;14.36;95.31;101352.06;5031366;28;20108;-68
2023/09/25 05:17:55;;;;;;;3.40;1.38;;;;;;;14.42;96.46;101358.38;5031121;28;20056;-73
2023/09/25 05:20:26;;;;;;;2.10;1.50;;;;;;;14.40;95.65;101355.88;5031310;28;20496;-74
2023/09/25 05:22:56;;;;;;;4.45;2.00;;;;;;;14.43;95.42;101363.59;5028857;28;20040;-74
2023/09/25 05:25:26;;;;;;;1.45;1.10;;;;;;;14.41;96.37;101351.22;5049225;28;20056;-74
2023/09/25 05:27:57;;;;;;;2.00;1.25;;;;;;;14.45;94.70;101355.00;5049740;28;20048;-74
2023/09/25 05:30:27;;;;;;;2.00;1.50;;;;;;;14.52;97.79;101361.03;5046577;28;20060;-73
2023/09/25 05:32:55;;;;;;;1.33;1.23;;;;;;;14.55;96.77;101360.44;5047166;28;20045;-73
2023/09/25 05:35:24;;;;;;;1.88;1.40;;;;;;;14.62;94.36;101360.13;5044821;28;20507;-74
2023/09/25 05:37:52;;;;;;;3.42;1.33;;;;;;;14.66;95.53;101358.44;5048614;28;20522;-74
2023/09/25 05:40:20;;;;;;;4.93;1.50;;;;;;;14.63;96.65;101367.28;5039685;28;20061;-74
2023/09/25 05:42:49;;;;;;;3.72;2.20;;;;;;;14.81;95.54;101370.47;5039925;28;20487;-74
2023/09/25 05:45:22;;;;;;;1.27;1.10;;;;;;;15.02;94.10;101382.13;5041113;28;20049;-74
2023/09/25 05:47:51;;;;;;;3.03;1.23;;;;;;;15.15;92.86;101370.41;5031279;28;20376;-74
2023/09/25 05:50:19;;;;;;;4.20;1.40;;;;;;;15.38;92.35;101372.63;5049529;28;20055;-74
2023/09/25 05:52:47;;;;;;;2.75;1.35;;;;;;;15.49;92.96;101371.41;5048823;28;20056;-74
2023/09/25 05:55:15;;;;;;;2.42;1.52;;;;;;;15.74;91.28;101374.16;5035500;28;20050;-74
2023/09/25 05:57:43;;;;;;;2.03;1.58;;;;;;;15.80;91.39;101368.25;5029814;28;20057;-74
2023/09/25 06:00:12;;;;;;;1.70;1.20;;;;;;;15.97;90.09;101372.50;5043601;28;20056;-74
2023/09/25 06:02:42;;;;;;;2.20;1.50;;;;;;;15.96;88.73;101373.63;5036446;28;20048;-74
2023/09/25 06:05:15;;;;;;;3.70;1.65;;;;;;;16.10;87.62;101370.94;5049691;28;20045;-74
2023/09/25 06:07:46;;;;;;;3.83;1.60;;;;;;;16.25;86.46;101372.66;5050474;28;20096;-75
2023/09/25 06:10:17;;;;;;;4.03;1.23;;;;;;;16.42;84.49;101382.34;5049857;28;20049;-75
2023/09/25 06:12:50;;;;;;;2.65;1.50;;;;;;;16.55;84.04;101376.06;5047935;28;20050;-75
2023/09/25 06:15:23;;;;;;;1.75;1.50;;;;;;;16.73;83.36;101377.16;5049227;28;20057;-75
2023/09/25 06:17:52;;;;;;;3.35;1.60;;;;;;;16.90;82.56;101379.34;5049571;28;20053;-75
2023/09/25 06:20:26;;;;;;;4.13;1.80;;;;;;;16.86;83.09;101366.44;5031766;28;20072;-74
2023/09/25 06:22:55;;;;;;;9.52;1.88;;;;;;;17.09;80.24;101372.94;5047346;28;20049;-75
2023/09/25 06:25:25;;;;;;;5.10;1.60;;;;;;;17.18;81.09;101371.13;5036811;28;20072;-75
2023/09/25 06:27:54;;;;;;;3.85;1.23;;;;;;;17.44;78.11;101370.63;5022240;28;21123;-75
2023/09/25 06:30:24;;;;;;;2.22;1.23;;;;;;;17.59;76.34;101365.88;5044353;28;20053;-75
2023/09/25 06:32:53;;;;;;;3.25;1.50;;;;;;;17.71;75.81;101363.41;5036420;28;20056;-75
2023/09/25 06:35:30;;;;;;;4.45;1.50;;;;;;;17.87;76.55;101371.41;5044361;28;20060;-87
2023/09/25 06:37:59;;;;;;;3.63;1.58;;;;;;;18.09;74.11;101376.19;4992773;28;20076;-87
2023/09/25 06:40:29;;;;;;;5.43;1.27;;;;;;;18.37;73.24;101387.19;5011947;28;20048;-87
2023/09/25 06:42:58;;;;;;;2.70;1.05;;;;;;;18.47;71.35;101390.84;4987305;28;20045;-87
2023/09/25 06:45:27;;;;;;;2.97;1.70;;;;;;;18.58;71.17;101391.41;5013173;28;20041;-87
2023/09/25 06:47:55;;;;;;;3.78;1.15;;;;;;;18.54;70.09;101389.25;5017831;28;20377;-90
2023/09/25 06:50:24;;;;;;;3.90;1.17;;;;;;;18.74;70.38;101395.44;4997722;28;20407;-90
2023/09/25 06:52:53;;;;;;;1.92;0.90;;;;;;;18.90;69.44;101400.59;5017400;28;20403;-88
2023/09/25 06:55:21;;;;;;;3.75;1.10;;;;;;;18.92;68.39;101398.34;5020413;28;20053;-88
2023/09/25 06:57:50;;;;;;;4.45;1.33;;;;;;;19.02;67.70;101398.03;5017121;28;20041;-87
2023/09/25 07:00:19;;;;;;;3.00;1.23;;;;;;;19.19;67.97;101404.84;5021950;28;20049;-89
2023/09/25 07:02:48;;;;;;;1.85;0.80;;;;;;;19.17;67.88;101393.28;5032796;28;20048;-90
2023/09/25 07:05:17;;;;;;;6.15;1.45;;;;;;;19.13;68.46;101395.03;5032056;28;20068;-89
2023/09/25 07:07:47;;;;;;;2.50;0.90;;;;;;;19.19;68.08;101388.22;5017524;28;20045;-88
2023/09/25 07:10:15;;;;;;;1.05;0.93;;;;;;;19.39;67.41;101394.31;5034913;28;20053;-90
2023/09/25 07:12:44;;;;;;;1.67;0.82;;;;;;;19.55;67.51;101391.97;5000815;28;20050;-89
2023/09/25 07:15:12;;;;;;;1.13;0.75;;;;;;;19.77;65.92;101407.69;5020845;28;20056;-90
2023/09/25 07:17:41;;;;;;;3.60;1.00;;;;;;;19.78;66.01;101398.22;5021085;28;20041;-90
2023/09/25 07:20:10;;;;;;;2.05;1.00;;;;;;;19.81;65.76;101397.59;5035147;28;20049;-89
2023/09/25 07:22:39;;;;;;;3.53;1.02;;;;;;;19.87;65.23;101401.84;5008874;28;20602;-89
2023/09/25 07:25:09;;;;;;;4.60;1.05;;;;;;;19.88;63.81;101409.03;5000313;28;20061;-90
2023/09/25 07:27:37;;;;;;;1.35;0.80;;;;;;;19.90;63.74;101396.78;5017335;28;20053;-91
2023/09/25 07:30:08;;;;;;;5.40;1.30;;;;;;;20.00;64.21;101399.28;5012008;28;20064;-91
2023/09/25 07:32:37;;;;;;;2.75;0.80;;;;;;;20.12;63.67;101393.06;5008667;28;20049;-91
2023/09/25 07:35:09;;;;;;;4.80;1.30;;;;;;;20.25;63.39;101394.06;5001484;28;20060;-91
2023/09/25 07:37:41;;;;;;;1.95;0.85;;;;;;;20.37;63.08;101390.63;5007233;28;20040;-81
2023/09/25 07:40:14;;;;;;;5.40;0.93;;;;;;;20.45;62.21;101392.59;5040600;28;20057;-77
2023/09/25 07:42:43;;;;;;;1.23;0.90;;;;;;;20.52;60.75;101386.53;5034093;28;20049;-77
2023/09/25 07:45:30;;;;;;;3.97;0.93;;;;;;;20.62;61.07;101386.19;5041453;28;20058;-89
2023/09/25 07:48:00;;;;;;;0.90;0.85;;;;;;;20.73;60.80;101383.88;4993879;28;20057;-88
2023/09/25 07:50:29;;;;;;;1.40;0.75;;;;;;;20.81;60.57;101385.00;4990453;28;20054;-89
2023/09/25 07:53:00;;;;;;;1.10;0.90;;;;;;;20.84;60.65;101381.56;4995269;28;20044;-89
2023/09/25 07:55:30;;;;;;;3.58;1.30;;;;;;;20.93;59.46;101385.16;4997108;28;20075;-88
2023/09/25 07:58:01;;;;;;;4.22;1.05;;;;;;;21.01;59.58;101402.19;5015786;28;20377;-89
2023/09/25 08:00:37;;;;;;;2.90;0.85;;;;;;;21.01;58.14;101403.00;4986862;28;20040;-89
2023/09/25 08:03:15;;;;;;;1.75;0.90;;;;;;;21.20;58.41;101404.56;5010004;28;20404;-89
2023/09/25 08:05:44;;;;;;;2.80;1.17;;;;;;;21.15;54.54;101413.91;4993413;28;20572;-89
2023/09/25 08:08:13;;;;;;;5.43;1.45;;;;;;;21.32;54.20;101412.22;5007531;28;20055;-89
2023/09/25 08:10:47;;;;;;;2.03;0.82;;;;;;;21.51;55.73;101411.00;5006385;28;20052;-88
2023/09/25 08:13:18;;;;;;;2.45;1.23;;;;;;;21.56;54.07;101414.41;4991916;28;20049;-88
2023/09/25 08:15:46;;;;;;;2.78;0.55;;;;;;;21.64;54.87;101412.72;5018933;28;20053;-89
2023/09/25 08:18:15;;;;;;;1.30;0.80;;;;;;;21.67;54.56;101412.06;5018677;28;20049;-89
2023/09/25 08:20:45;;;;;;;1.80;0.90;;;;;;;21.70;53.45;101416.19;4984098;28;20045;-88
2023/09/25 08:23:16;;;;;;;2.92;0.68;;;;;;;21.68;53.73;101419.25;4998309;28;20072;-89
2023/09/25 08:25:46;;;;;;;1.38;0.88;;;;;;;21.79;53.33;101424.50;4991762;28;20057;-89
2023/09/25 08:28:16;;;;;;;1.17;0.77;;;;;;;21.85;52.12;101428.72;5003142;28;20053;-90
2023/09/25 08:30:45;;;;;;;3.08;0.80;;;;;;;21.83;51.61;101422.63;5003260;28;20045;-89
2023/09/25 08:33:15;;;;;;;1.77;1.05;;;;;;;22.01;51.30;101426.94;4995845;28;20049;-89
2023/09/25 08:35:45;;;;;;;3.58;0.90;;;;;;;22.05;50.47;101423.50;5002964;28;20084;-89
2023/09/25 08:38:15;;;;;;;1.02;0.80;;;;;;;22.01;50.41;101429.72;5004819;28;20064;-87
2023/09/25 08:40:49;;;;;;;0.98;0.43;;;;;;;22.12;49.91;101423.78;5004393;28;20053;-89
2023/09/25 08:43:21;;;;;;;1.13;0.73;;;;;;;22.26;50.09;101423.50;5016637;28;20048;-88
2023/09/25 08:45:51;;;;;;;3.55;0.82;;;;;;;22.19;48.31;101414.88;5010338;28;20064;-88
2023/09/25 08:48:19;;;;;;;1.10;0.60;;;;;;;22.29;48.40;101422.84;5010022;28;20053;-88
2023/09/25 08:50:50;;;;;;;0.60;0.52;;;;;;;22.39;48.13;101424.41;5030095;28;20063;-88
2023/09/25 08:53:19;;;;;;;2.08;0.60;;;;;;;22.48;48.17;101433.50;5009340;28;20391;-86
2023/09/25 08:55:48;;;;;;;1.13;0.85;;;;;;;22.47;48.75;101443.03;5028905;28;20053;-87
2023/09/25 08:58:17;;;;;;;1.17;0.50;;;;;;;22.53;47.11;101430.53;5024920;28;20041;-87
2023/09/25 09:00:46;;;;;;;0.50;0.40;;;;;;;22.62;47.48;101427.66;5016113;28;20041;-86
2023/09/25 09:03:17;;;;;;;1.65;1.00;;;;;;;22.62;48.02;101432.44;5021421;28;20042;-82
2023/09/25 09:05:47;;;;;;;4.43;1.20;;;;;;;22.76;48.15;101432.13;4996948;28;20067;-83
2023/09/25 09:08:17;;;;;;;1.98;1.10;;;;;;;22.91;47.85;101428.69;4982385;28;20373;-83
2023/09/25 09:10:45;;;;;;;0.95;0.52;;;;;;;23.12;43.22;101429.78;4995253;28;20056;-82
2023/09/25 09:13:22;;;;;;;2.35;0.90;;;;;;;23.08;43.86;101424.88;5010778;28;20053;-84
2023/09/25 09:15:51;;;;;;;1.02;0.55;;;;;;;23.05;41.02;101422.81;5001114;28;20049;-85
2023/09/25 09:18:22;;;;;;;1.63;0.60;;;;;;;23.18;42.62;101434.00;5000489;28;20049;-85
2023/09/25 09:20:58;;;;;;;4.43;0.60;;;;;;;23.21;41.54;101419.31;5017046;28;20104;-84
2023/09/25 09:23:41;;;;;;;0.53;0.53;;;;;;;23.28;41.36;101425.19;5000640;28;20053;-84
2023/09/25 09:26:16;;;;;;;0.57;0.38;;;;;;;23.33;41.39;101416.59;5008175;28;20059;-85
2023/09/25 09:28:46;;;;;;;2.95;0.50;;;;;;;23.38;43.12;101425.91;5016068;28;20053;-83
2023/09/25 09:31:18;;;;;;;1.85;0.77;;;;;;;23.48;41.71;101422.66;4997836;28;20049;-85
2023/09/25 09:33:48;;;;;;;0.77;0.70;;;;;;;23.48;42.64;101423.47;4987609;28;20041;-85
2023/09/25 09:36:19;;;;;;;0.80;0.50;;;;;;;23.61;41.87;101427.06;4992933;28;20054;-83
2023/09/25 09:38:52;;;;;;;1.75;0.68;;;;;;;23.65;41.69;101423.59;4994907;28;20052;-84
2023/09/25 09:41:22;;;;;;;0.47;0.47;;;;;;;23.73;40.83;101422.66;5012581;28;20049;-84
2023/09/25 09:43:52;;;;;;;2.53;0.68;;;;;;;23.65;42.40;101410.41;4993896;28;20050;-85
2023/09/25 09:46:28;;;;;;;0.73;0.73;;;;;;;23.78;41.08;101424.38;5012373;28;20045;-86
2023/09/25 09:48:59;;;;;;;0.77;0.43;;;;;;;23.81;40.88;101412.50;5014401;28;20051;-85
2023/09/25 09:51:33;;;;;;;2.35;0.65;;;;;;;23.74;39.00;101418.69;5017881;28;20057;-85
2023/09/25 09:54:05;;;;;;;;;;;;;;;24.00;39.81;101426.69;4997927;28;20060;-85
2023/09/25 09:56:35;;;;;;;1.77;0.60;;;;;;;24.12;39.87;101419.47;5017463;28;19939;-85
2023/09/25 09:59:06;;;;;;;0.85;0.50;;;;;;;24.26;40.49;101424.69;5000893;28;20254;-86
2023/09/25 10:01:36;;;;;;;2.92;0.82;;;;;;;24.32;39.58;101423.25;4994304;28;20050;-85
2023/09/25 10:04:06;;;;;;;3.33;0.98;;;;;;;24.15;38.76;101410.41;4972107;28;20054;-84
2023/09/25 10:06:50;;;;;;;1.05;0.65;;;;;;;24.28;39.21;101425.13;4980713;28;20050;-84
2023/09/25 10:09:20;;;;;;;1.63;0.50;;;;;;;24.31;39.80;101418.84;5003575;28;20054;-83
2023/09/25 10:11:54;;;;;;;0.90;0.70;;;;;;;24.41;39.61;101423.94;4994578;28;20054;-83
2023/09/25 10:14:29;;;;;;;0.60;0.30;;;;;;;24.49;39.34;101429.75;4990491;28;20408;-83
2023/09/25 10:17:04;;;;;;;0.73;0.47;;;;;;;24.49;39.86;101412.97;5007712;28;20061;-83
2023/09/25 10:19:42;;;;;;;0.50;0.40;;;;;;;24.50;38.72;101417.38;4968765;28;20571;-84
2023/09/25 10:22:20;;;;;;;0.50;0.38;;;;;;;24.73;41.27;101405.63;4994237;28;20388;-83
2023/09/25 10:25:05;;;;;;;0.85;0.52;;;;;;;24.77;37.33;101417.72;4993838;28;20045;-84
2023/09/25 10:27:38;;;;;;;1.65;0.50;;;;;;;24.88;38.64;101407.66;4989479;28;20593;-83
2023/09/25 10:30:17;;;;;;;1.95;0.52;;;;;;;24.93;39.62;101404.59;4992129;28;20408;-84
2023/09/25 10:32:55;;;;;;;0.50;0.30;;;;;;;24.89;36.42;101409.31;4973302;28;20405;-83
2023/09/25 10:35:36;;;;;;;0.47;0.30;;;;;;;25.05;36.70;101406.50;4965999;28;20073;-84
2023/09/25 10:38:21;;;;;;;1.52;0.30;;;;;;;24.81;37.61;101410.25;4976445;28;20072;-84
2023/09/25 10:41:03;;;;;;;1.05;0.50;;;;;;;24.85;39.59;101408.38;5007107;28;20057;-84
2023/09/25 10:43:33;;;;;;;1.02;0.47;;;;;;;25.00;38.57;101405.94;4986276;28;20073;-84
2023/09/25 10:46:03;;;;;;;1.92;0.30;;;;;;;25.20;37.96;101406.88;5006436;28;20049;-84
2023/09/25 10:48:33;;;;;;;0.77;0.45;;;;;;;25.19;37.38;101405.25;4992492;28;20046;-84
2023/09/25 10:51:03;;;;;;;0.70;0.70;;;;;;;25.25;37.35;101408.56;5003982;28;20077;-84
2023/09/25 10:53:33;;;;;;;0.85;0.50;;;;;;;25.21;37.15;101405.69;4988520;28;20045;-84
2023/09/25 10:56:03;;;;;;;0.70;0.52;;;;;;;25.17;37.30;101396.41;4990658;28;20064;-84
2023/09/25 10:58:33;;;;;;;1.25;0.65;;;;;;;25.42;36.88;101411.00;4991225;28;20054;-83
2023/09/25 11:01:04;;;;;;;0.70;0.40;;;;;;;25.46;35.94;101397.91;5002933;28;20061;-84
2023/09/25 11:03:38;;;;;;;0.63;0.55;;;;;;;25.53;37.94;101393.66;4992091;28;20042;-85
2023/09/25 11:06:07;;;;;;;1.55;0.50;;;;;;;25.49;36.94;101393.56;4995569;28;20045;-83
2023/09/25 11:08:36;;;;;;;1.17;0.55;;;;;;;25.46;37.27;101397.13;5001466;28;20058;-84
2023/09/25 11:11:06;;;;;;;0.80;0.50;;;;;;;25.46;37.17;101386.72;4999550;28;20038;-84
2023/09/25 11:13:35;;;;;;;1.55;0.45;;;;;;;25.58;35.63;101399.00;4995564;28;20057;-83
2023/09/25 11:16:06;;;;;;;0.73;0.20;;;;;;;25.54;35.47;101392.50;4991597;28;20057;-84
2023/09/25 11:18:35;;;;;;;0.63;0.50;;;;;;;25.75;36.50;101380.97;4994936;28;20061;-84
2023/09/25 11:21:05;;;;;;;0.95;0.65;;;;;;;25.84;36.47;101380.78;4995874;28;20053;-84
2023/09/25 11:23:33;;;;;;;0.70;0.63;;;;;;;25.92;36.71;101374.16;5001390;28;20105;-84
2023/09/25 11:26:03;;;;;;;0.75;0.40;;;;;;;25.87;36.26;101378.09;4982054;28;20060;-83
2023/09/25 11:28:33;;;;;;;2.47;0.45;;;;;;;25.89;38.53;101366.47;5003012;28;20060;-84
2023/09/25 11:31:02;;;;;;;2.58;0.57;;;;;;;25.94;37.21;101365.41;4995470;28;20089;-84
2023/09/25 11:33:31;;;;;;;1.58;0.75;;;;;;;25.92;36.63;101365.75;4984740;28;20400;-84
2023/09/25 11:36:00;;;;;;;0.40;0.40;;;;;;;25.91;34.52;101364.13;5010283;28;20080;-84
2023/09/25 11:38:30;;;;;;;1.00;0.50;;;;;;;26.05;36.55;101357.19;4997925;28;20058;-84